Time;durP1;ratioP1;P1;durP2;ratioP2;P2;SDS_P1;SDS_P2;PMS_P1;PMS_P2;Temp;Humidity;BMP_temperature;BMP_pressure;BME280_temperature;BME280_humidity;BME280_pressure;Samples;Min_cycle;Max_cycle;Signal;HPM_P1;HPM_P2
2022/07/03 00:02:26;;;;;;;1.93;1.47;;;22.30;57.40;;;;;;5038752;28;20469;-67
2022/07/03 00:04:52;;;;;;;3.33;1.17;;;22.30;57.60;;;;;;5039537;28;20841;-68
2022/07/03 00:07:19;;;;;;;2.57;1.10;;;22.20;57.70;;;;;;5040268;28;20973;-68
2022/07/03 00:09:46;;;;;;;1.40;1.30;;;22.20;57.70;;;;;;5025242;28;20490;-68
2022/07/03 00:12:13;;;;;;;1.20;1.10;;;22.20;57.80;;;;;;5043105;28;20461;-68
2022/07/03 00:14:41;;;;;;;1.63;1.43;;;22.20;58.00;;;;;;5043174;28;20462;-68
2022/07/03 00:17:08;;;;;;;1.63;1.40;;;22.20;58.10;;;;;;5043255;28;20455;-68
2022/07/03 00:19:36;;;;;;;1.80;1.30;;;22.20;58.20;;;;;;5043372;28;20829;-68
2022/07/03 00:22:05;;;;;;;2.93;1.37;;;22.20;58.30;;;;;;5042945;28;20446;-68
2022/07/03 00:24:38;;;;;;;1.40;1.30;;;22.20;58.60;;;;;;5042743;28;21024;-67
2022/07/03 00:27:09;;;;;;;1.27;1.17;;;22.10;58.90;;;;;;5042395;28;20518;-67
2022/07/03 00:29:38;;;;;;;1.20;1.10;;;22.10;59.20;;;;;;5039616;28;20474;-67
2022/07/03 00:32:09;;;;;;;4.97;1.20;;;22.10;59.50;;;;;;5037962;28;20458;-68
2022/07/03 00:34:37;;;;;;;1.57;1.37;;;22.10;59.90;;;;;;5041861;28;20504;-68
2022/07/03 00:37:09;;;;;;;2.20;0.90;;;22.10;59.80;;;;;;5042325;28;20454;-68
2022/07/03 00:39:38;;;;;;;1.83;1.50;;;22.10;59.90;;;;;;5042719;28;20435;-68
2022/07/03 00:42:06;;;;;;;3.00;1.10;;;22.10;60.10;;;;;;5042035;28;20467;-68
2022/07/03 00:44:35;;;;;;;2.17;1.40;;;22.10;59.80;;;;;;5041653;28;20482;-68
2022/07/03 00:47:03;;;;;;;1.53;1.40;;;22.10;59.50;;;;;;5038827;28;20441;-68
2022/07/03 00:49:32;;;;;;;3.33;1.03;;;22.10;59.80;;;;;;5040469;28;20474;-67
2022/07/03 00:52:03;;;;;;;1.40;1.30;;;22.10;60.00;;;;;;5041705;28;20450;-68
2022/07/03 00:54:34;;;;;;;1.73;1.30;;;22.10;59.90;;;;;;5040920;28;20481;-68
2022/07/03 00:57:02;;;;;;;3.33;1.30;;;22.10;59.90;;;;;;5041326;28;20449;-68
2022/07/03 00:59:29;;;;;;;5.77;1.50;;;22.10;59.80;;;;;;5041546;28;20451;-68
2022/07/03 01:02:03;;;;;;;1.67;1.27;;;22.10;59.90;;;;;;5042070;28;20561;-68
2022/07/03 01:04:46;;;;;;;3.80;1.17;;;22.10;59.90;;;;;;5041292;28;20466;-68
2022/07/03 01:07:21;;;;;;;2.13;1.60;;;22.00;60.40;;;;;;5041666;28;20488;-67
2022/07/03 01:09:56;;;;;;;1.80;1.70;;;22.00;60.60;;;;;;5040996;28;21000;-67
2022/07/03 01:12:27;;;;;;;2.07;1.23;;;21.90;60.70;;;;;;5041687;28;20434;-67
2022/07/03 01:15:06;;;;;;;2.37;1.50;;;21.90;60.80;;;;;;5041366;28;20480;-68
2022/07/03 01:17:38;;;;;;;1.53;1.43;;;21.90;61.40;;;;;;5041829;28;20434;-67
2022/07/03 01:20:08;;;;;;;2.00;1.90;;;21.80;62.00;;;;;;5041845;28;20912;-67
2022/07/03 01:22:37;;;;;;;1.90;1.20;;;21.80;62.20;;;;;;5041321;28;20446;-68
2022/07/03 01:25:22;;;;;;;1.17;1.07;;;21.70;62.80;;;;;;5041472;28;20472;-67
2022/07/03 01:27:58;;;;;;;2.43;1.23;;;21.70;63.10;;;;;;5041730;28;20434;-67
2022/07/03 01:30:27;;;;;;;2.50;1.00;;;21.60;63.40;;;;;;5040583;28;20466;-67
2022/07/03 01:32:59;;;;;;;2.80;1.40;;;21.60;63.40;;;;;;5040224;28;20455;-68
2022/07/03 01:35:32;;;;;;;1.70;1.30;;;21.60;63.40;;;;;;5039725;28;20504;-68
2022/07/03 01:38:03;;;;;;;5.37;1.47;;;21.60;63.80;;;;;;5038616;28;20915;-68
2022/07/03 01:40:32;;;;;;;2.40;1.20;;;21.50;64.10;;;;;;5038634;28;20459;-68
2022/07/03 01:43:03;;;;;;;1.43;1.33;;;21.40;64.30;;;;;;5039168;28;20541;-68
2022/07/03 01:45:33;;;;;;;1.20;1.10;;;21.40;64.90;;;;;;5039850;28;20427;-67
2022/07/03 01:48:01;;;;;;;1.63;1.43;;;21.30;65.20;;;;;;5040628;28;20873;-68
2022/07/03 01:50:31;;;;;;;3.00;1.20;;;21.20;65.40;;;;;;5040410;28;20486;-67
2022/07/03 01:53:02;;;;;;;1.13;0.93;;;21.10;65.60;;;;;;5040428;28;20450;-67
2022/07/03 01:55:32;;;;;;;2.60;1.50;;;21.10;65.70;;;;;;5041015;28;20501;-68
2022/07/03 01:58:01;;;;;;;4.23;1.50;;;21.10;66.10;;;;;;5040981;28;20828;-67
2022/07/03 02:00:29;;;;;;;1.73;1.10;;;21.10;66.20;;;;;;5040983;28;20453;-67
2022/07/03 02:03:01;;;;;;;1.63;1.23;;;21.00;66.30;;;;;;5041102;28;20450;-67
2022/07/03 02:05:34;;;;;;;1.33;1.17;;;21.00;66.80;;;;;;5040530;28;20473;-67
2022/07/03 02:08:11;;;;;;;3.47;1.47;;;21.00;67.00;;;;;;5041121;28;20419;-67
2022/07/03 02:10:45;;;;;;;4.60;1.10;;;21.00;67.90;;;;;;5041082;28;20490;-67
2022/07/03 02:13:18;;;;;;;2.10;1.20;;;21.00;67.40;;;;;;5040299;28;20439;-67
2022/07/03 02:15:46;;;;;;;2.67;1.60;;;20.90;67.70;;;;;;5040403;28;20437;-67
2022/07/03 02:18:30;;;;;;;2.60;1.37;;;20.90;67.80;;;;;;5036625;28;20456;-67
2022/07/03 02:21:14;;;;;;;8.50;2.07;;;20.90;67.90;;;;;;5037940;28;20441;-67
2022/07/03 02:23:52;;;;;;;2.33;1.50;;;20.80;67.80;;;;;;5041045;28;20470;-67
2022/07/03 02:26:20;;;;;;;6.03;2.50;;;20.80;67.70;;;;;;5040114;28;20777;-67
2022/07/03 02:29:00;;;;;;;5.07;1.50;;;20.80;67.70;;;;;;5040159;28;20447;-67
2022/07/03 02:31:29;;;;;;;9.10;1.80;;;20.80;67.70;;;;;;5039971;28;20478;-67
2022/07/03 02:33:59;;;;;;;3.73;1.57;;;20.80;67.70;;;;;;5039961;28;20478;-67
2022/07/03 02:36:29;;;;;;;3.10;1.90;;;20.80;67.60;;;;;;5040079;28;20435;-67
2022/07/03 02:38:59;;;;;;;2.90;1.63;;;20.80;67.60;;;;;;5040149;28;20435;-68
2022/07/03 02:41:30;;;;;;;1.87;1.73;;;20.70;67.80;;;;;;5039376;28;20961;-68
2022/07/03 02:44:05;;;;;;;2.90;1.47;;;20.70;68.10;;;;;;5040019;28;20470;-68
2022/07/03 02:46:51;;;;;;;3.47;1.73;;;20.60;68.30;;;;;;5039836;28;20445;-68
2022/07/03 02:49:41;;;;;;;5.67;1.50;;;20.50;68.60;;;;;;5039595;28;20447;-68
2022/07/03 02:52:15;;;;;;;4.03;2.00;;;20.50;69.00;;;;;;5039314;28;20443;-68
2022/07/03 02:54:46;;;;;;;3.80;1.47;;;20.40;69.10;;;;;;5039500;28;20482;-68
2022/07/03 02:57:15;;;;;;;4.70;1.40;;;20.40;69.10;;;;;;5039966;28;20466;-68
2022/07/03 02:59:54;;;;;;;4.00;1.43;;;20.40;69.20;;;;;;5039704;28;20447;-68
2022/07/03 03:02:31;;;;;;;5.37;2.10;;;20.40;69.20;;;;;;5039432;28;20442;-68
2022/07/03 03:05:02;;;;;;;4.57;1.90;;;20.40;69.30;;;;;;5039834;28;20475;-68
2022/07/03 03:07:35;;;;;;;5.80;1.70;;;20.40;69.40;;;;;;5039591;28;20438;-68
2022/07/03 03:10:02;;;;;;;2.33;1.40;;;20.30;69.30;;;;;;5039065;28;20466;-68
2022/07/03 03:12:36;;;;;;;5.80;1.37;;;20.30;69.40;;;;;;5039511;28;20426;-67
2022/07/03 03:15:06;;;;;;;7.93;2.13;;;20.30;69.60;;;;;;5039634;28;20476;-67
2022/07/03 03:17:40;;;;;;;5.90;1.80;;;20.30;70.00;;;;;;5040093;28;20465;-68
2022/07/03 03:20:09;;;;;;;4.10;1.70;;;20.20;70.00;;;;;;5039856;28;20435;-68
2022/07/03 03:22:50;;;;;;;10.73;1.60;;;20.20;70.20;;;;;;5039810;28;20442;-68
2022/07/03 03:25:17;;;;;;;4.00;1.60;;;20.10;70.30;;;;;;5039472;28;20481;-68
2022/07/03 03:27:44;;;;;;;6.60;2.10;;;20.10;70.70;;;;;;5040147;28;20465;-68
2022/07/03 03:30:13;;;;;;;5.90;1.50;;;20.00;70.90;;;;;;5040013;28;20514;-68
2022/07/03 03:32:41;;;;;;;5.20;1.83;;;19.90;71.20;;;;;;5040458;28;20456;-68
2022/07/03 03:35:09;;;;;;;9.20;1.80;;;19.80;71.40;;;;;;5039616;28;20470;-68
2022/07/03 03:37:36;;;;;;;11.10;1.90;;;19.80;71.50;;;;;;5040007;28;20945;-68
2022/07/03 03:40:03;;;;;;;3.63;1.23;;;19.80;71.50;;;;;;5039928;28;20465;-68
2022/07/03 03:42:30;;;;;;;7.87;2.10;;;19.80;71.40;;;;;;5041571;28;20450;-68
2022/07/03 03:44:57;;;;;;;10.13;2.23;;;19.80;71.50;;;;;;5044122;28;20473;-68
2022/07/03 03:47:26;;;;;;;7.50;2.30;;;19.80;71.50;;;;;;5043979;28;20521;-68
2022/07/03 03:49:53;;;;;;;11.87;2.50;;;19.70;71.40;;;;;;5044426;28;20454;-68
2022/07/03 03:52:19;;;;;;;8.90;2.40;;;19.80;71.60;;;;;;5043660;28;20454;-68
2022/07/03 03:54:46;;;;;;;4.67;2.13;;;19.80;71.60;;;;;;5042818;28;20474;-67
2022/07/03 03:57:18;;;;;;;9.70;2.00;;;19.80;71.60;;;;;;5042481;28;20451;-67
2022/07/03 03:59:45;;;;;;;5.67;2.20;;;19.80;71.70;;;;;;5041392;28;20508;-67
2022/07/03 04:02:12;;;;;;;11.40;2.60;;;19.80;71.90;;;;;;5038336;28;20450;-68
2022/07/03 04:04:40;;;;;;;8.90;1.93;;;19.70;72.00;;;;;;5040128;28;20565;-68
2022/07/03 04:07:07;;;;;;;6.53;2.50;;;19.60;73.10;;;;;;5044460;28;20460;-68
2022/07/03 04:09:34;;;;;;;11.30;2.43;;;19.50;73.90;;;;;;5044852;28;20450;-68
2022/07/03 04:12:01;;;;;;;13.43;2.40;;;19.50;73.60;;;;;;5044817;28;20572;-68
2022/07/03 04:14:28;;;;;;;4.50;2.13;;;19.60;73.60;;;;;;5044066;28;20477;-68
2022/07/03 04:16:55;;;;;;;7.40;2.87;;;19.60;73.80;;;;;;5043894;28;20455;-68
2022/07/03 04:19:22;;;;;;;5.30;1.80;;;19.60;73.70;;;;;;5044587;28;20460;-68
2022/07/03 04:21:51;;;;;;;5.37;2.20;;;19.70;74.20;;;;;;5043823;28;20451;-68
2022/07/03 04:24:18;;;;;;;7.63;2.17;;;19.70;74.10;;;;;;5043217;28;20474;-67
2022/07/03 04:26:45;;;;;;;4.03;3.00;;;19.70;74.60;;;;;;5044191;28;20464;-67
2022/07/03 04:29:12;;;;;;;4.83;2.00;;;19.80;74.80;;;;;;5043890;28;20458;-67
2022/07/03 04:31:38;;;;;;;4.90;2.33;;;19.80;74.60;;;;;;5043259;28;20496;-67
2022/07/03 04:34:05;;;;;;;7.30;2.60;;;19.80;75.10;;;;;;5043349;28;20466;-67
2022/07/03 04:36:32;;;;;;;5.10;2.80;;;19.80;75.00;;;;;;5043593;28;20454;-67
2022/07/03 04:39:00;;;;;;;7.30;2.70;;;19.70;74.60;;;;;;5043918;28;20477;-67
2022/07/03 04:41:27;;;;;;;6.23;2.37;;;19.60;75.10;;;;;;5043411;28;20458;-68
2022/07/03 04:43:54;;;;;;;2.50;2.10;;;19.70;76.20;;;;;;5043438;28;20474;-68
2022/07/03 04:46:21;;;;;;;4.80;2.63;;;19.70;76.10;;;;;;5044030;28;20456;-68
2022/07/03 04:48:48;;;;;;;5.87;2.70;;;19.60;76.40;;;;;;5043659;28;20494;-68
2022/07/03 04:51:14;;;;;;;3.63;2.70;;;19.60;76.30;;;;;;5044085;28;20478;-68
2022/07/03 04:53:41;;;;;;;3.00;2.77;;;19.60;76.60;;;;;;5042632;28;20838;-68
2022/07/03 04:56:09;;;;;;;4.20;2.67;;;19.60;76.70;;;;;;5043913;28;20450;-68
2022/07/03 04:58:36;;;;;;;4.93;2.90;;;19.70;76.50;;;;;;5043030;28;20848;-68
2022/07/03 05:01:03;;;;;;;7.00;3.50;;;19.70;75.70;;;;;;5043178;28;20835;-68
2022/07/03 05:03:29;;;;;;;3.37;2.80;;;19.70;76.30;;;;;;5042781;28;20478;-68
2022/07/03 05:05:56;;;;;;;4.67;2.40;;;19.70;77.40;;;;;;5042212;28;20453;-68
2022/07/03 05:08:23;;;;;;;7.43;3.17;;;19.70;77.50;;;;;;5042281;28;20446;-68
2022/07/03 05:10:50;;;;;;;5.57;3.70;;;19.70;77.50;;;;;;5042614;28;20489;-68
2022/07/03 05:13:18;;;;;;;3.80;3.40;;;19.70;77.60;;;;;;5043048;28;20989;-68
2022/07/03 05:15:45;;;;;;;6.70;3.03;;;19.70;78.20;;;;;;5043112;28;20460;-68
2022/07/03 05:18:11;;;;;;;4.97;3.90;;;19.70;79.50;;;;;;5043575;28;20482;-68
2022/07/03 05:20:38;;;;;;;4.67;3.87;;;19.70;79.90;;;;;;5043197;28;20446;-68
2022/07/03 05:23:05;;;;;;;5.50;4.00;;;19.60;80.20;;;;;;5043818;28;20509;-68
2022/07/03 05:25:33;;;;;;;5.60;4.13;;;19.60;79.90;;;;;;5044383;28;20450;-68
2022/07/03 05:28:01;;;;;;;4.87;4.20;;;19.60;79.90;;;;;;5044434;28;21074;-68
2022/07/03 05:30:29;;;;;;;6.97;4.50;;;19.50;80.60;;;;;;5043332;28;20482;-68
2022/07/03 05:32:55;;;;;;;4.80;4.10;;;19.50;81.10;;;;;;5042749;28;20453;-68
2022/07/03 05:35:23;;;;;;;7.83;4.33;;;19.50;81.00;;;;;;5042443;28;20470;-68
2022/07/03 05:37:50;;;;;;;5.70;4.27;;;19.50;81.20;;;;;;5042448;28;20450;-68
2022/07/03 05:40:17;;;;;;;7.30;4.50;;;19.50;81.50;;;;;;5043552;28;20466;-68
2022/07/03 05:42:43;;;;;;;7.93;4.70;;;19.60;81.90;;;;;;5041934;28;20451;-68
2022/07/03 05:45:11;;;;;;;4.97;4.33;;;19.60;81.00;;;;;;5042210;28;20476;-68
2022/07/03 05:47:39;;;;;;;5.97;5.37;;;19.70;80.60;;;;;;5042677;28;20462;-68
2022/07/03 05:50:07;;;;;;;9.63;4.23;;;19.70;80.60;;;;;;5040553;28;20455;-68
2022/07/03 05:52:34;;;;;;;5.50;4.50;;;19.80;80.30;;;;;;5041375;28;20865;-67
2022/07/03 05:55:00;;;;;;;13.67;4.90;;;19.90;80.60;;;;;;5042863;28;20481;-68
2022/07/03 05:57:27;;;;;;;6.63;4.50;;;19.90;80.60;;;;;;5043289;28;20876;-68
2022/07/03 05:59:54;;;;;;;4.67;4.00;;;19.90;80.10;;;;;;5043842;28;20450;-68
2022/07/03 06:02:21;;;;;;;6.67;4.00;;;20.00;79.80;;;;;;5043370;28;20446;-68
2022/07/03 06:04:49;;;;;;;4.13;3.73;;;20.10;80.10;;;;;;5044174;28;20485;-68
2022/07/03 06:07:16;;;;;;;6.90;3.63;;;20.20;78.50;;;;;;5045188;28;20456;-68
2022/07/03 06:09:44;;;;;;;5.57;3.80;;;20.30;77.90;;;;;;5044357;28;20469;-67
2022/07/03 06:12:11;;;;;;;4.53;3.83;;;20.40;77.10;;;;;;5045444;28;20564;-68
2022/07/03 06:14:38;;;;;;;7.27;4.13;;;20.40;76.80;;;;;;5044782;28;20467;-67
2022/07/03 06:17:05;;;;;;;4.60;3.83;;;20.40;76.60;;;;;;5044262;28;20449;-67
2022/07/03 06:19:32;;;;;;;5.77;3.50;;;20.50;76.70;;;;;;5043030;28;20458;-68
2022/07/03 06:22:00;;;;;;;4.90;3.80;;;20.60;76.00;;;;;;5040155;28;20450;-68
2022/07/03 06:24:26;;;;;;;6.10;3.90;;;20.70;75.50;;;;;;5037877;28;20466;-68
2022/07/03 06:26:53;;;;;;;3.33;3.03;;;20.80;75.90;;;;;;5039611;28;20936;-67
2022/07/03 06:29:20;;;;;;;5.27;3.60;;;20.80;75.50;;;;;;5043579;28;20463;-67
2022/07/03 06:31:47;;;;;;;4.20;3.80;;;20.90;74.40;;;;;;5042979;28;20466;-67
2022/07/03 06:34:13;;;;;;;7.53;3.73;;;21.00;74.40;;;;;;5042193;28;20469;-68
2022/07/03 06:36:40;;;;;;;3.83;3.53;;;21.00;73.50;;;;;;5043119;28;20438;-67
2022/07/03 06:39:08;;;;;;;4.30;3.33;;;21.00;73.80;;;;;;5044093;28;20458;-67
2022/07/03 06:41:35;;;;;;;4.23;3.50;;;21.00;72.60;;;;;;5044216;28;20451;-67
2022/07/03 06:44:02;;;;;;;5.13;3.93;;;21.10;72.20;;;;;;5044993;28;20478;-67
2022/07/03 06:46:28;;;;;;;5.03;3.70;;;21.10;73.40;;;;;;5043853;28;20545;-68
2022/07/03 06:48:56;;;;;;;6.63;3.67;;;21.10;71.90;;;;;;5043844;28;20514;-68
2022/07/03 06:51:23;;;;;;;3.90;3.47;;;21.30;71.60;;;;;;5042968;28;20490;-68
2022/07/03 06:53:49;;;;;;;3.20;2.90;;;21.40;68.10;;;;;;5043960;28;20480;-67
2022/07/03 06:56:18;;;;;;;3.47;3.17;;;21.50;69.50;;;;;;5043367;28;20823;-67
2022/07/03 06:58:44;;;;;;;5.30;3.13;;;21.60;69.70;;;;;;5043642;28;20459;-68
2022/07/03 07:01:11;;;;;;;2.60;2.40;;;21.70;68.70;;;;;;5042784;28;20451;-68
2022/07/03 07:03:38;;;;;;;4.03;2.60;;;21.80;67.40;;;;;;5041734;28;20482;-68
2022/07/03 07:06:05;;;;;;;3.73;2.60;;;22.00;66.80;;;;;;5042337;28;20454;-68
2022/07/03 07:08:32;;;;;;;4.83;3.47;;;22.10;66.90;;;;;;5042475;28;20446;-68
2022/07/03 07:10:58;;;;;;;2.93;2.40;;;22.40;66.10;;;;;;5042331;28;20491;-67
2022/07/03 07:13:26;;;;;;;3.20;2.70;;;22.60;66.00;;;;;;5041646;28;20471;-68
2022/07/03 07:15:53;;;;;;;4.83;2.70;;;22.80;65.50;;;;;;5043802;28;20457;-67
2022/07/03 07:18:20;;;;;;;2.93;2.73;;;22.90;62.40;;;;;;5040470;28;20461;-68
2022/07/03 07:20:47;;;;;;;3.50;2.83;;;23.00;61.90;;;;;;5040036;28;20450;-68
2022/07/03 07:23:14;;;;;;;4.60;2.60;;;23.10;62.60;;;;;;5039458;28;20439;-67
2022/07/03 07:25:41;;;;;;;6.93;2.93;;;23.20;64.00;;;;;;5040169;28;20450;-67
2022/07/03 07:28:08;;;;;;;4.60;2.83;;;23.10;60.20;;;;;;5040298;28;20460;-68
2022/07/03 07:30:36;;;;;;;5.50;2.40;;;23.20;61.50;;;;;;5040095;28;20461;-68
2022/07/03 07:33:03;;;;;;;3.60;3.30;;;23.20;63.60;;;;;;5039417;28;20486;-68
2022/07/03 07:35:29;;;;;;;7.00;2.50;;;23.20;62.70;;;;;;5039595;28;20512;-68
2022/07/03 07:37:56;;;;;;;3.83;2.90;;;23.40;61.20;;;;;;5040166;28;20446;-68
2022/07/03 07:40:23;;;;;;;2.80;2.47;;;23.50;61.80;;;;;;5040191;28;20472;-68
2022/07/03 07:42:50;;;;;;;5.47;2.10;;;23.70;59.90;;;;;;5037328;28;20451;-67
2022/07/03 07:45:17;;;;;;;5.60;2.67;;;23.80;60.20;;;;;;5034057;28;20470;-67
2022/07/03 07:47:45;;;;;;;2.60;2.33;;;23.90;58.60;;;;;;5034618;28;20455;-68
2022/07/03 07:50:12;;;;;;;2.10;1.70;;;24.00;58.10;;;;;;5039164;28;20837;-68
2022/07/03 07:52:39;;;;;;;4.80;2.30;;;24.00;59.00;;;;;;5040064;28;20486;-68
2022/07/03 07:55:07;;;;;;;3.53;1.87;;;24.00;58.40;;;;;;5039660;28;20553;-68
2022/07/03 07:57:37;;;;;;;5.20;2.10;;;24.10;58.80;;;;;;5040501;28;20450;-68
2022/07/03 08:00:09;;;;;;;3.53;2.23;;;24.00;56.90;;;;;;5039797;28;20937;-68
2022/07/03 08:05:36;;;;;;;5.23;1.90;;;24.10;57.40;;;;;;5040319;28;20454;-68
2022/07/03 08:08:04;;;;;;;4.40;2.10;;;24.20;57.00;;;;;;5040205;28;20435;-68
2022/07/03 08:10:35;;;;;;;2.00;1.70;;;24.30;55.80;;;;;;5040438;28;20457;-68
2022/07/03 08:13:02;;;;;;;4.80;1.90;;;24.40;56.10;;;;;;5039280;28;20474;-68
2022/07/03 08:15:29;;;;;;;3.07;1.73;;;24.50;56.50;;;;;;5040145;28;20457;-67
2022/07/03 08:17:56;;;;;;;3.20;2.17;;;24.70;56.10;;;;;;5040004;28;20553;-67
2022/07/03 08:20:24;;;;;;;2.30;2.10;;;24.70;54.30;;;;;;5039807;28;20498;-67
2022/07/03 08:22:51;;;;;;;5.50;2.70;;;24.80;55.30;;;;;;5039621;28;20438;-67
2022/07/03 08:25:17;;;;;;;2.70;1.70;;;24.80;54.60;;;;;;5039920;28;20479;-67
2022/07/03 08:27:44;;;;;;;7.87;2.47;;;24.90;55.50;;;;;;5040396;28;20457;-67
2022/07/03 08:30:13;;;;;;;5.60;1.67;;;25.00;54.10;;;;;;5042720;28;20466;-67
2022/07/03 08:32:40;;;;;;;3.50;2.03;;;25.10;55.50;;;;;;5043670;28;20493;-67
2022/07/03 08:35:08;;;;;;;4.33;2.60;;;25.30;54.90;;;;;;5043074;28;20470;-67
2022/07/03 08:37:36;;;;;;;4.43;2.63;;;25.50;53.70;;;;;;5043287;28;20454;-67
2022/07/03 08:40:04;;;;;;;4.80;2.10;;;25.50;53.60;;;;;;5043913;28;20458;-67
2022/07/03 08:42:33;;;;;;;3.73;2.40;;;25.70;54.10;;;;;;5042923;28;20466;-68
2022/07/03 08:45:02;;;;;;;4.60;2.13;;;25.90;51.90;;;;;;5041697;28;21015;-68
2022/07/03 08:47:32;;;;;;;5.77;2.47;;;26.00;50.90;;;;;;5042427;28;20450;-68
2022/07/03 08:50:02;;;;;;;4.73;2.67;;;26.10;51.60;;;;;;5043301;28;20443;-68
2022/07/03 08:52:29;;;;;;;3.90;2.33;;;26.30;51.50;;;;;;5043619;28;20613;-68
2022/07/03 08:54:57;;;;;;;6.60;3.53;;;26.50;51.60;;;;;;5042836;28;20467;-68
2022/07/03 08:57:27;;;;;;;5.20;3.47;;;26.60;51.90;;;;;;5043124;28;20458;-68
2022/07/03 08:59:54;;;;;;;5.00;2.90;;;26.70;49.70;;;;;;5040995;28;20501;-68
2022/07/03 09:02:22;;;;;;;3.40;2.50;;;26.80;50.40;;;;;;5042356;28;20456;-68
2022/07/03 09:04:50;;;;;;;3.70;2.50;;;26.80;49.00;;;;;;5042285;28;20993;-68
2022/07/03 09:07:19;;;;;;;6.43;3.33;;;26.90;50.30;;;;;;5042803;28;20455;-68
2022/07/03 09:09:46;;;;;;;4.07;3.00;;;27.10;50.50;;;;;;5042947;28;20504;-68
2022/07/03 09:12:15;;;;;;;4.87;3.43;;;27.30;48.90;;;;;;5042712;28;20512;-68
2022/07/03 09:14:42;;;;;;;3.57;2.97;;;27.40;47.40;;;;;;5042819;28;20474;-68
2022/07/03 09:17:10;;;;;;;8.13;3.40;;;27.60;48.50;;;;;;5042749;28;20426;-68
2022/07/03 09:19:46;;;;;;;3.40;2.53;;;27.70;48.40;;;;;;5042635;28;20450;-68
2022/07/03 09:22:23;;;;;;;5.80;2.60;;;27.80;47.10;;;;;;5041754;28;20791;-68
2022/07/03 09:24:51;;;;;;;3.90;2.80;;;27.70;44.30;;;;;;5042284;28;20557;-68
2022/07/03 09:27:20;;;;;;;5.30;3.40;;;27.70;45.60;;;;;;5041644;28;20454;-68
2022/07/03 09:30:00;;;;;;;4.47;3.07;;;27.70;45.50;;;;;;5042229;28;20447;-68
2022/07/03 09:32:32;;;;;;;2.83;2.20;;;27.70;44.70;;;;;;5041928;28;20854;-68
2022/07/03 09:35:20;;;;;;;2.23;2.07;;;27.90;45.60;;;;;;5042742;28;20569;-68
2022/07/03 09:37:52;;;;;;;3.20;2.90;;;28.20;44.20;;;;;;5041468;28;20450;-68
2022/07/03 09:40:19;;;;;;;4.00;2.90;;;28.30;45.30;;;;;;5041080;28;20470;-69
2022/07/03 09:43:03;;;;;;;3.47;3.03;;;28.40;44.10;;;;;;5042865;28;20454;-69
2022/07/03 09:45:51;;;;;;;3.87;2.87;;;28.50;43.50;;;;;;5041230;28;20443;-68
2022/07/03 09:48:26;;;;;;;4.90;2.43;;;28.50;43.50;;;;;;5042491;28;20446;-68
2022/07/03 09:51:10;;;;;;;5.03;2.63;;;28.40;45.20;;;;;;5042600;28;20440;-68
2022/07/03 09:53:51;;;;;;;7.43;2.70;;;28.60;43.20;;;;;;5042599;28;20497;-68
2022/07/03 09:56:20;;;;;;;2.80;2.50;;;28.80;43.60;;;;;;5041995;28;20457;-68
2022/07/03 09:59:09;;;;;;;3.50;2.30;;;29.00;42.60;;;;;;5041452;28;20497;-68
2022/07/03 10:01:37;;;;;;;2.90;2.33;;;29.10;42.50;;;;;;5041515;28;20466;-68
2022/07/03 10:04:15;;;;;;;3.30;2.50;;;29.10;42.70;;;;;;5041531;28;20468;-68
2022/07/03 10:06:53;;;;;;;4.13;2.20;;;29.30;40.90;;;;;;5038582;28;20438;-68
2022/07/03 10:09:22;;;;;;;2.70;2.20;;;29.50;42.10;;;;;;5039898;28;20443;-68
2022/07/03 10:11:49;;;;;;;3.20;2.00;;;29.60;43.40;;;;;;5043313;28;20474;-68
2022/07/03 10:14:18;;;;;;;3.67;1.77;;;30.10;41.60;;;;;;5043111;28;20472;-68
2022/07/03 10:16:46;;;;;;;7.97;2.53;;;30.50;42.10;;;;;;5041733;28;20450;-68
2022/07/03 10:19:15;;;;;;;2.43;1.73;;;30.80;38.50;;;;;;5042102;28;20521;-68
2022/07/03 10:21:44;;;;;;;8.77;2.40;;;31.00;38.10;;;;;;5042040;28;20469;-68
2022/07/03 10:24:13;;;;;;;1.73;1.43;;;31.20;37.60;;;;;;5041701;28;20474;-68
2022/07/03 10:26:42;;;;;;;3.93;1.70;;;31.50;37.40;;;;;;5039775;28;20426;-69
2022/07/03 10:29:11;;;;;;;2.20;1.57;;;31.90;37.30;;;;;;5037997;28;20454;-69
2022/07/03 10:31:40;;;;;;;6.03;2.20;;;32.00;37.10;;;;;;5038439;28;20457;-68
2022/07/03 10:34:08;;;;;;;2.30;1.80;;;32.40;36.90;;;;;;5037737;28;20473;-68
2022/07/03 10:36:36;;;;;;;2.70;1.40;;;32.80;34.50;;;;;;5037882;28;20514;-68
2022/07/03 10:39:07;;;;;;;4.13;1.90;;;33.00;33.70;;;;;;5038370;28;20461;-68
2022/07/03 10:47:40;;;;;;;2.47;1.70;;;34.00;32.90;;;;;;5040099;28;20405;-68
2022/07/03 10:50:10;;;;;;;3.50;1.90;;;34.10;31.00;;;;;;5039569;28;20445;-68
2022/07/03 10:52:37;;;;;;;3.40;1.80;;;34.10;30.80;;;;;;5037020;28;20536;-68
2022/07/03 10:55:06;;;;;;;2.40;1.90;;;34.00;30.90;;;;;;5041325;28;20457;-68
2022/07/03 10:57:33;;;;;;;1.97;1.77;;;34.10;31.90;;;;;;5041090;28;20441;-68
2022/07/03 11:00:08;;;;;;;2.73;1.80;;;34.60;30.80;;;;;;5040867;28;20442;-68
2022/07/03 11:02:39;;;;;;;2.30;1.57;;;35.10;29.30;;;;;;5039811;28;20426;-68
2022/07/03 11:05:17;;;;;;;2.90;1.50;;;35.30;28.70;;;;;;5021971;28;20474;-68
2022/07/03 11:08:04;;;;;;;1.40;1.30;;;35.40;28.30;;;;;;5039186;28;20434;-68
2022/07/03 11:10:40;;;;;;;3.47;1.60;;;35.20;28.30;;;;;;5039317;28;20484;-68
2022/07/03 11:13:16;;;;;;;1.70;1.37;;;35.40;28.80;;;;;;5039357;28;20479;-68
2022/07/03 11:15:45;;;;;;;2.40;1.63;;;35.90;28.90;;;;;;5039041;28;20520;-68
2022/07/03 11:18:27;;;;;;;2.90;2.00;;;36.40;27.20;;;;;;5039825;28;20450;-68
2022/07/03 11:21:25;;;;;;;3.13;1.53;;;37.00;26.80;;;;;;5039594;28;20496;-68
2022/07/03 11:24:36;;;;;;;2.30;1.40;;;37.10;26.10;;;;;;5039599;28;20470;-68
2022/07/03 11:27:19;;;;;;;3.27;1.70;;;37.80;25.90;;;;;;5036928;28;20201;-68
2022/07/03 11:29:51;;;;;;;2.17;1.30;;;38.00;25.00;;;;;;5036494;28;20826;-68
2022/07/03 11:32:53;;;;;;;2.23;1.40;;;37.70;24.00;;;;;;5039766;28;20267;-68
2022/07/03 11:35:59;;;;;;;3.40;1.80;;;37.60;25.40;;;;;;5039472;28;20222;-68
2022/07/03 11:38:31;;;;;;;2.50;1.17;;;37.80;25.30;;;;;;5039764;28;20646;-69
2022/07/03 11:41:00;;;;;;;1.03;0.90;;;38.10;24.80;;;;;;5040351;28;20261;-68
2022/07/03 11:43:27;;;;;;;2.05;1.00;;;38.50;24.80;;;;;;5040149;28;20219;-68
2022/07/03 11:45:54;;;;;;;2.53;1.20;;;38.90;24.10;;;;;;5039716;28;20295;-68
2022/07/03 11:48:23;;;;;;;3.30;1.40;;;38.70;24.20;;;;;;5039702;28;20207;-69
2022/07/03 11:50:51;;;;;;;1.00;0.90;;;38.80;23.50;;;;;;5040578;28;20218;-69
2022/07/03 11:53:26;;;;;;;2.13;1.20;;;38.90;24.20;;;;;;5039911;28;20314;-68
2022/07/03 11:55:57;;;;;;;1.75;1.20;;;39.20;23.60;;;;;;5040369;28;20190;-67
2022/07/03 11:58:25;;;;;;;3.30;0.98;;;39.50;23.50;;;;;;5040646;28;20198;-69
2022/07/03 12:00:52;;;;;;;1.20;1.10;;;39.70;25.10;;;;;;5038157;28;20199;-69
2022/07/03 12:03:25;;;;;;;4.22;1.17;;;39.50;23.40;;;;;;5040053;28;20203;-70
2022/07/03 12:05:58;;;;;;;1.70;0.80;;;39.70;23.70;;;;;;5040912;28;20207;-69
2022/07/03 12:08:26;;;;;;;1.90;1.40;;;39.90;23.30;;;;;;5037891;28;20191;-68
2022/07/03 12:11:00;;;;;;;2.78;1.13;;;40.00;22.90;;;;;;5040862;28;20705;-68
2022/07/03 12:13:27;;;;;;;4.28;1.27;;;39.90;21.80;;;;;;5040563;28;20250;-68
2022/07/03 12:15:55;;;;;;;2.80;0.73;;;39.70;23.00;;;;;;5041649;28;20199;-70
2022/07/03 12:18:22;;;;;;;2.40;1.00;;;39.80;23.40;;;;;;5043287;28;20183;-67
2022/07/03 12:20:49;;;;;;;4.22;0.85;;;39.90;22.50;;;;;;5042865;28;20237;-67
2022/07/03 12:23:16;;;;;;;2.45;0.90;;;40.20;22.10;;;;;;5043121;28;20222;-68
2022/07/03 12:25:42;;;;;;;1.70;1.27;;;40.20;22.20;;;;;;5044781;28;20214;-69
2022/07/03 12:28:11;;;;;;;1.65;1.10;;;40.00;22.90;;;;;;5042058;28;20199;-68
2022/07/03 12:30:38;;;;;;;1.67;0.93;;;40.00;22.30;;;;;;5042125;28;20214;-69
2022/07/03 12:33:07;;;;;;;1.95;1.00;;;40.30;22.80;;;;;;5041823;28;20219;-69
2022/07/03 12:35:34;;;;;;;3.22;1.02;;;40.00;21.40;;;;;;5042543;28;20191;-69
2022/07/03 12:38:01;;;;;;;1.27;0.93;;;39.70;22.80;;;;;;5038292;28;20199;-69
2022/07/03 12:40:28;;;;;;;3.00;1.00;;;39.30;22.50;;;;;;5037643;28;20317;-69
2022/07/03 12:42:56;;;;;;;4.70;0.98;;;39.20;23.00;;;;;;5038124;28;20214;-68
2022/07/03 12:45:25;;;;;;;2.40;1.17;;;39.00;23.60;;;;;;5037721;28;20265;-68
2022/07/03 12:47:59;;;;;;;2.63;1.50;;;39.20;23.00;;;;;;5037415;28;20588;-68
2022/07/03 12:50:26;;;;;;;0.98;0.80;;;39.80;22.20;;;;;;5037787;28;20305;-68
2022/07/03 12:52:55;;;;;;;1.80;1.10;;;40.50;22.90;;;;;;5037894;28;20235;-68
2022/07/03 12:55:25;;;;;;;4.43;1.00;;;40.60;21.90;;;;;;5038016;28;20571;-68
2022/07/03 13:00:57;;;;;;;1.55;0.95;;;40.70;22.00;;;;;;5037472;28;20187;-68
2022/07/03 13:03:27;;;;;;;1.08;0.95;;;41.00;21.80;;;;;;5036995;28;20233;-68
2022/07/03 13:05:54;;;;;;;0.80;0.80;;;41.50;21.30;;;;;;5038621;28;20210;-69
2022/07/03 13:08:21;;;;;;;2.25;1.00;;;42.20;21.50;;;;;;5038164;28;20209;-68
2022/07/03 13:10:56;;;;;;;5.53;0.70;;;42.60;20.60;;;;;;5038781;28;20195;-69
2022/07/03 13:13:23;;;;;;;1.80;1.00;;;42.20;19.10;;;;;;5037698;28;20254;-69